Time,TemperatureF,DewpointF,PressureIn,WindDirection,WindDirectionDegrees,WindSpeedMPH,WindSpeedGustMPH,Humidity,HourlyPrecipIn,Conditions,Clouds,dailyrainin,SoftwareType,DateUTC
2013-08-19 09:23:00,68.0,59.0,29.91,WSW,248,0.0,0.0,74,-99.99,,,-99.99,,2013-08-19 16:23:00,
2013-08-19 10:18:00,71.0,59.0,29.93,WSW,248,0.0,0.0,67,-99.99,,,-99.99,,2013-08-19 17:18:00,
2013-08-19 10:57:00,71.0,59.0,29.93,WSW,248,0.0,0.0,67,-99.99,,,-99.99,,2013-08-19 17:57:00,
2013-08-19 11:05:00,71.0,59.0,29.93,WSW,248,0.0,0.0,67,-99.99,,,-99.99,,2013-08-19 18:05:00,
2013-08-19 11:28:00,71.0,60.0,29.93,SW,231,0.0,0.0,69,-99.99,,,-99.99,,2013-08-19 18:28:00,
2013-08-19 11:35:00,71.0,59.0,29.95,WNW,287,0.0,3.0,67,-99.99,,,-99.99,,2013-08-19 18:35:00,
2013-08-19 11:50:00,-999.0,-99.9,29.94,WSW,245,0.0,0.0,70,-99.99,,,-99.99,,2013-08-19 18:50:00,
2013-08-19 12:00:00,-999.0,-99.9,29.95,WNW,287,0.0,3.0,67,-99.99,,,-99.99,,2013-08-19 19:00:00,
2013-08-19 12:06:00,71.0,59.0,29.95,WNW,287,0.0,3.0,67,-99.99,,,-99.99,,2013-08-19 19:06:00,
2013-08-19 12:16:00,71.0,59.0,29.95,WNW,287,0.0,3.0,67,-99.99,,,-99.99,,2013-08-19 19:16:00,
2013-08-19 12:30:00,-999.0,-99.9,29.95,WNW,287,0.0,3.0,67,-99.99,,,-99.99,,2013-08-19 19:30:00,
2013-08-19 12:59:00,67.0,58.0,29.94,WSW,248,3.0,4.0,72,-99.99,,,-99.99,,2013-08-19 19:59:00,
2013-08-19 13:20:00,67.0,58.0,29.94,WSW,248,3.0,4.0,73,-99.99,,,-99.99,,2013-08-19 20:20:00,
2013-08-19 13:30:00,67.0,57.0,29.93,WSW,248,4.0,6.0,71,-99.99,,,-99.99,,2013-08-19 20:30:00,
2013-08-19 14:00:00,-999.0,-99.9,29.94,WSW,248,2.0,6.0,-999,-99.99,,,-99.99,,2013-08-19 21:00:00,
2013-08-19 14:16:00,70.0,59.0,29.94,WSW,242,3.0,5.0,68,-99.99,,,-99.99,,2013-08-19 21:16:00,
2013-08-19 14:25:00,71.0,57.0,29.94,SW,236,1.0,4.0,62,-99.99,,,-99.99,,2013-08-19 21:25:00,
2013-08-19 14:54:00,70.0,56.0,29.94,SW,225,1.0,5.0,61,-99.99,,,-99.99,,2013-08-19 21:54:00,
2013-08-19 15:25:00,74.0,59.0,29.93,SW,233,0.0,3.0,59,-99.99,,,-99.99,,2013-08-19 22:25:00,
2013-08-19 15:54:00,74.0,57.0,29.93,SW,231,0.0,4.0,56,-99.99,,,-99.99,,2013-08-19 22:54:00,
2013-08-19 16:05:00,74.0,57.0,29.93,SW,231,0.0,4.0,56,-99.99,,,-99.99,,2013-08-19 23:05:00,
2013-08-19 19:52:00,61.0,54.0,29.88,WSW,248,5.0,6.0,79,-99.99,,,-99.99,,2013-08-20 02:52:00,
2013-08-19 20:11:00,60.0,55.0,29.88,WSW,241,3.0,6.0,83,-99.99,,,-99.99,,2013-08-20 03:11:00,
2013-08-19 20:22:00,60.0,55.0,29.88,WSW,241,3.0,6.0,83,-99.99,,,-99.99,,2013-08-20 03:22:00,
2013-08-19 20:33:00,60.0,55.0,29.88,WSW,241,3.0,6.0,83,-99.99,,,-99.99,,2013-08-20 03:33:00,
2013-08-19 20:54:00,57.0,54.0,29.87,WSW,254,2.0,6.0,91,-99.99,,,-99.99,,2013-08-20 03:54:00,
2013-08-19 21:03:00,57.0,54.0,29.87,WSW,254,2.0,6.0,91,-99.99,,,-99.99,,2013-08-20 04:03:00,
2013-08-19 21:13:00,57.0,54.0,29.87,WSW,254,2.0,6.0,91,-99.99,,,-99.99,,2013-08-20 04:13:00,
2013-08-19 21:23:00,56.0,54.0,29.90,WSW,248,4.0,6.0,93,-99.99,,,-99.99,,2013-08-20 04:23:00,
2013-08-19 21:53:00,54.0,53.0,29.89,WSW,248,5.0,6.0,96,-99.99,,,-99.99,,2013-08-20 04:53:00,
2013-08-19 22:02:00,54.0,53.0,29.89,WSW,248,5.0,6.0,96,-99.99,,,-99.99,,2013-08-20 05:02:00,
2013-08-19 22:12:00,54.0,53.0,29.89,WSW,248,5.0,6.0,96,-99.99,,,-99.99,,2013-08-20 05:12:00,
2013-08-19 22:21:00,55.0,54.0,29.91,WSW,248,3.0,4.0,97,-99.99,,,-99.99,,2013-08-20 05:21:00,
2013-08-19 22:42:00,54.0,53.0,29.91,WSW,245,3.0,5.0,97,-99.99,,,-99.99,,2013-08-20 05:42:00,
2013-08-19 22:52:00,54.0,53.0,29.91,WSW,245,3.0,5.0,97,-99.99,,,-99.99,,2013-08-20 05:52:00,
2013-08-19 23:11:00,54.0,53.0,29.91,WSW,248,3.0,4.0,98,-99.99,,,-99.99,,2013-08-20 06:11:00,
2013-08-19 23:21:00,55.0,54.0,29.91,SW,228,2.0,4.0,98,-99.99,,,-99.99,,2013-08-20 06:21:00,
2013-08-19 23:41:00,54.0,53.0,29.90,WSW,248,1.0,4.0,98,-99.99,,,-99.99,,2013-08-20 06:41:00,
2013-08-19 23:51:00,54.0,53.0,29.90,WSW,248,1.0,4.0,98,-99.99,,,-99.99,,2013-08-20 06:51:00,